createdAt,value
2018-03-30T00:00:48.894Z,4.00
2018-03-30T00:01:48.874Z,4.00
2018-03-30T00:02:48.881Z,4.00
2018-03-30T00:03:48.891Z,4.00
2018-03-30T00:04:48.903Z,4.00
2018-03-30T00:05:48.916Z,4.00
2018-03-30T00:06:48.930Z,4.00
2018-03-30T00:07:48.938Z,4.00
2018-03-30T00:08:48.950Z,4.00
2018-03-30T00:09:48.962Z,4.00
2018-03-30T00:10:48.973Z,4.00
2018-03-30T00:11:48.985Z,4.00
2018-03-30T00:12:49.001Z,4.00
2018-03-30T00:13:49.012Z,4.00
2018-03-30T00:14:49.022Z,4.00
2018-03-30T00:15:49.036Z,4.00
2018-03-30T00:16:49.042Z,4.00
2018-03-30T00:17:49.056Z,4.00
2018-03-30T00:18:49.068Z,4.00
2018-03-30T00:19:49.078Z,4.00
2018-03-30T00:20:49.092Z,4.00
2018-03-30T00:21:49.103Z,4.00
2018-03-30T00:22:49.112Z,4.00
2018-03-30T00:23:49.126Z,4.00
2018-03-30T00:24:49.137Z,4.00
2018-03-30T00:25:49.153Z,4.00
2018-03-30T00:26:49.162Z,4.00
2018-03-30T00:27:49.170Z,4.00
2018-03-30T00:28:49.189Z,4.00
2018-03-30T00:29:49.196Z,4.00
2018-03-30T00:30:49.212Z,4.00
2018-03-30T00:31:49.216Z,4.00
2018-03-30T00:32:49.231Z,4.00
2018-03-30T00:33:49.240Z,4.00
2018-03-30T00:34:49.253Z,4.00
2018-03-30T00:35:49.268Z,4.00
2018-03-30T00:36:49.276Z,4.00
2018-03-30T00:37:49.290Z,4.00
2018-03-30T00:38:49.302Z,4.00
2018-03-30T00:39:49.311Z,4.00
2018-03-30T00:40:49.324Z,4.00
2018-03-30T00:41:49.337Z,4.00
2018-03-30T00:42:49.348Z,4.00
2018-03-30T00:43:49.356Z,4.00
2018-03-30T00:44:49.375Z,4.00
2018-03-30T00:45:49.381Z,4.00
2018-03-30T00:46:49.392Z,4.00
2018-03-30T00:47:49.402Z,4.00
2018-03-30T00:48:49.414Z,4.00
2018-03-30T00:49:49.430Z,4.00
2018-03-30T00:50:49.440Z,4.00
2018-03-30T00:51:49.451Z,4.00
2018-03-30T00:52:49.464Z,4.00
2018-03-30T00:53:49.472Z,4.00
2018-03-30T00:54:49.483Z,4.00
2018-03-30T00:55:49.495Z,4.00
2018-03-30T00:56:49.509Z,4.00
2018-03-30T00:57:49.521Z,4.00
2018-03-30T00:58:49.533Z,4.00
2018-03-30T00:59:49.543Z,4.00
2018-03-30T01:00:49.554Z,4.00
2018-03-30T01:01:49.566Z,4.00
2018-03-30T01:02:49.573Z,4.00
2018-03-30T01:03:49.587Z,4.00
2018-03-30T01:04:49.599Z,4.00
2018-03-30T01:05:49.610Z,4.00
2018-03-30T01:06:49.621Z,4.00
2018-03-30T01:07:49.633Z,4.00
2018-03-30T01:08:49.648Z,4.00
2018-03-30T01:09:49.657Z,4.00
2018-03-30T01:10:49.668Z,4.00
2018-03-30T01:11:49.679Z,4.00
2018-03-30T01:12:49.692Z,4.00
2018-03-30T01:13:49.707Z,4.00
2018-03-30T01:14:49.729Z,4.00
2018-03-30T01:15:49.729Z,4.00
2018-03-30T01:16:49.738Z,4.00
2018-03-30T01:17:49.748Z,4.00
2018-03-30T01:18:49.759Z,4.00
2018-03-30T01:19:49.771Z,4.00
2018-03-30T01:20:49.782Z,4.00
2018-03-30T01:21:49.793Z,4.00
2018-03-30T01:22:49.801Z,4.00
2018-03-30T01:23:49.808Z,4.00
2018-03-30T01:24:49.821Z,4.00
2018-03-30T01:25:49.831Z,4.00
2018-03-30T01:26:49.844Z,4.00
2018-03-30T01:27:49.854Z,4.00
2018-03-30T01:28:49.865Z,4.00
2018-03-30T01:29:49.876Z,4.00
2018-03-30T01:30:49.890Z,4.00
2018-03-30T01:31:49.900Z,4.00
2018-03-30T01:32:49.912Z,4.00
2018-03-30T01:33:49.923Z,4.00
2018-03-30T01:34:49.934Z,4.00
2018-03-30T01:35:49.946Z,4.00
2018-03-30T01:36:49.957Z,4.00
2018-03-30T01:37:49.970Z,4.00
2018-03-30T01:38:49.981Z,4.00
2018-03-30T01:39:49.990Z,4.00
2018-03-30T01:40:50.003Z,4.00
2018-03-30T01:41:50.014Z,4.00
2018-03-30T01:42:50.026Z,4.00
2018-03-30T01:43:50.046Z,4.00
2018-03-30T01:44:50.050Z,4.00
2018-03-30T01:45:50.060Z,4.00
2018-03-30T01:46:50.071Z,4.00
2018-03-30T01:47:50.082Z,4.00
2018-03-30T01:48:50.094Z,4.00
2018-03-30T01:50:50.516Z,4.00
2018-03-30T01:51:50.129Z,4.00
2018-03-30T01:52:50.141Z,4.00
2018-03-30T01:53:50.151Z,4.00
2018-03-30T01:54:50.162Z,4.00
2018-03-30T01:55:50.173Z,4.00
2018-03-30T01:56:50.189Z,4.00
2018-03-30T01:57:50.197Z,4.00
2018-03-30T01:58:50.208Z,4.00
2018-03-30T01:59:50.227Z,4.00
2018-03-30T02:00:50.233Z,4.00
2018-03-30T02:01:50.242Z,4.00
2018-03-30T02:02:50.253Z,4.00
2018-03-30T02:03:50.269Z,4.00
2018-03-30T02:04:50.279Z,4.00
2018-03-30T02:05:50.289Z,4.00
2018-03-30T02:06:50.298Z,4.00
2018-03-30T02:07:50.311Z,4.00
2018-03-30T02:08:50.327Z,4.00
2018-03-30T02:09:50.355Z,4.00
2018-03-30T02:10:50.353Z,4.00
2018-03-30T02:11:50.356Z,4.00
2018-03-30T02:12:50.369Z,4.00
2018-03-30T02:13:50.380Z,4.00
2018-03-30T02:14:50.392Z,4.00
2018-03-30T02:15:50.402Z,4.00
2018-03-30T02:16:50.414Z,4.00
2018-03-30T02:17:50.427Z,4.00
2018-03-30T02:18:50.438Z,4.00
2018-03-30T02:19:50.447Z,4.00
2018-03-30T02:20:50.460Z,4.00
2018-03-30T02:21:50.470Z,4.00
2018-03-30T02:22:50.481Z,4.00
2018-03-30T02:23:50.496Z,4.00
2018-03-30T02:24:50.505Z,4.00
2018-03-30T02:25:50.517Z,4.00
2018-03-30T02:26:50.528Z,4.00
2018-03-30T02:27:50.540Z,4.00
2018-03-30T02:28:50.550Z,4.00
2018-03-30T02:29:50.564Z,4.00
2018-03-30T02:30:50.578Z,4.00
2018-03-30T02:31:50.586Z,4.00
2018-03-30T02:32:50.598Z,4.00
2018-03-30T02:33:50.610Z,4.00
2018-03-30T02:34:50.620Z,4.00
2018-03-30T02:35:50.631Z,4.00
2018-03-30T02:36:50.643Z,4.00
2018-03-30T02:37:50.655Z,4.00
2018-03-30T02:38:50.665Z,4.00
2018-03-30T02:39:50.685Z,4.00
2018-03-30T02:40:50.701Z,4.00
2018-03-30T02:41:50.700Z,4.00
2018-03-30T02:42:50.728Z,4.00
2018-03-30T02:43:50.726Z,4.00
2018-03-30T02:44:50.734Z,4.00
2018-03-30T02:45:50.745Z,4.00
2018-03-30T02:46:50.756Z,4.00
2018-03-30T02:47:50.767Z,4.00
2018-03-30T02:48:50.995Z,4.00
2018-03-30T02:49:50.794Z,4.00
2018-03-30T02:50:50.803Z,4.00
2018-03-30T02:51:50.815Z,4.00
2018-03-30T02:52:50.827Z,4.00
2018-03-30T02:53:50.840Z,4.00
2018-03-30T02:54:50.850Z,4.00
2018-03-30T02:55:50.870Z,4.00
2018-03-30T02:56:50.876Z,4.00
2018-03-30T02:57:50.901Z,4.00
2018-03-30T02:58:50.893Z,4.00
2018-03-30T02:59:50.907Z,4.00
2018-03-30T03:00:50.919Z,4.00
2018-03-30T03:01:50.930Z,4.00
2018-03-30T03:02:50.942Z,4.00
2018-03-30T03:03:50.961Z,4.00
2018-03-30T03:04:50.981Z,4.00
2018-03-30T03:05:50.978Z,4.00
2018-03-30T03:06:50.987Z,4.00
2018-03-30T03:07:50.999Z,4.00
2018-03-30T03:08:51.012Z,4.00
2018-03-30T03:09:51.023Z,4.00
2018-03-30T03:10:51.034Z,4.00
2018-03-30T03:11:51.046Z,4.00
2018-03-30T03:12:51.058Z,4.00
2018-03-30T03:13:51.068Z,4.00
2018-03-30T03:14:51.080Z,4.00
2018-03-30T03:15:51.097Z,4.00
2018-03-30T03:16:51.106Z,4.00
2018-03-30T03:17:51.121Z,4.00
2018-03-30T03:18:51.138Z,4.00
2018-03-30T03:19:51.147Z,4.00
2018-03-30T03:20:51.151Z,4.00
2018-03-30T03:21:51.161Z,4.00
2018-03-30T03:22:51.174Z,4.00
2018-03-30T03:23:51.184Z,4.00
2018-03-30T03:24:51.197Z,4.00
2018-03-30T03:25:51.212Z,4.00
2018-03-30T03:26:51.225Z,4.00
2018-03-30T03:27:51.235Z,4.00
2018-03-30T03:28:51.243Z,4.00
2018-03-30T03:29:51.256Z,4.00
2018-03-30T03:30:51.268Z,4.00
2018-03-30T03:31:51.279Z,4.00
2018-03-30T03:32:51.293Z,4.00
2018-03-30T03:33:51.304Z,4.00
2018-03-30T03:34:51.314Z,4.00
2018-03-30T03:35:51.530Z,4.00
2018-03-30T03:36:51.336Z,4.00
2018-03-30T03:37:51.348Z,4.00
2018-03-30T03:38:51.357Z,4.00
2018-03-30T03:39:51.379Z,4.00
2018-03-30T03:40:51.384Z,4.00
2018-03-30T03:41:51.398Z,4.00
2018-03-30T03:42:51.404Z,4.00
2018-03-30T03:43:51.415Z,4.00
2018-03-30T03:44:51.428Z,4.00
2018-03-30T03:45:51.441Z,4.00
2018-03-30T03:46:51.451Z,4.00
2018-03-30T03:47:51.464Z,4.00
2018-03-30T03:48:51.479Z,4.00
2018-03-30T03:49:51.488Z,4.00
2018-03-30T03:50:51.500Z,4.00
2018-03-30T03:51:51.509Z,4.00
2018-03-30T03:52:51.522Z,4.00
2018-03-30T03:53:51.532Z,4.00
2018-03-30T03:54:51.549Z,4.00
2018-03-30T03:55:51.555Z,4.00
2018-03-30T03:56:51.570Z,4.00
2018-03-30T03:57:51.581Z,4.00
2018-03-30T03:58:51.591Z,4.00
2018-03-30T03:59:51.605Z,4.00
2018-03-30T04:00:51.613Z,4.00
2018-03-30T04:01:51.625Z,4.00
2018-03-30T04:02:51.642Z,4.00
2018-03-30T04:03:51.648Z,4.00
2018-03-30T04:04:51.661Z,4.00
2018-03-30T04:05:51.673Z,4.00
2018-03-30T04:06:51.730Z,4.00
2018-03-30T04:07:51.693Z,4.00
2018-03-30T04:08:51.708Z,4.00
2018-03-30T04:09:51.719Z,4.00
2018-03-30T04:10:51.734Z,4.00
2018-03-30T04:11:51.741Z,4.00
2018-03-30T04:12:51.767Z,4.00
2018-03-30T04:13:51.767Z,4.00
2018-03-30T04:14:51.779Z,4.00
2018-03-30T04:15:51.787Z,4.00
2018-03-30T04:16:51.799Z,4.00
2018-03-30T04:17:51.810Z,4.00
2018-03-30T04:18:51.822Z,4.00
2018-03-30T04:19:51.838Z,4.00
2018-03-30T04:20:51.845Z,4.00
2018-03-30T04:21:51.857Z,4.00
2018-03-30T04:22:51.867Z,4.00
2018-03-30T04:23:51.880Z,4.00
2018-03-30T04:24:51.891Z,4.00
2018-03-30T04:25:51.905Z,4.00
2018-03-30T04:26:51.916Z,4.00
2018-03-30T04:27:51.926Z,4.00
2018-03-30T04:28:51.938Z,4.00
2018-03-30T04:29:51.948Z,4.00
2018-03-30T04:30:51.969Z,4.00
2018-03-30T04:31:51.971Z,4.00
2018-03-30T04:32:51.984Z,4.00
2018-03-30T04:33:51.995Z,4.00
2018-03-30T04:34:52.010Z,4.00
2018-03-30T04:35:52.019Z,4.00
2018-03-30T04:36:52.029Z,4.00
2018-03-30T04:37:52.042Z,4.00
2018-03-30T04:38:52.052Z,4.00
2018-03-30T04:39:52.065Z,4.00
2018-03-30T04:40:52.072Z,4.00
2018-03-30T04:41:52.093Z,4.00
2018-03-30T04:42:52.097Z,4.00
2018-03-30T04:43:52.109Z,4.00
2018-03-30T04:44:52.121Z,4.00
2018-03-30T04:45:52.135Z,0.00
2018-03-30T04:46:52.144Z,4.00
2018-03-30T04:47:52.156Z,4.00
2018-03-30T04:48:52.164Z,4.00
2018-03-30T04:49:52.178Z,4.00
2018-03-30T04:50:52.195Z,4.00
2018-03-30T04:51:52.200Z,4.00
2018-03-30T04:52:52.232Z,4.00
2018-03-30T04:53:52.225Z,8.00
2018-03-30T04:54:52.233Z,4.00
2018-03-30T04:55:52.245Z,8.00
2018-03-30T04:56:52.258Z,8.00
2018-03-30T04:57:52.269Z,12.00
2018-03-30T04:58:52.282Z,12.00
2018-03-30T04:59:52.292Z,12.00
2018-03-30T05:00:52.303Z,12.00
2018-03-30T05:01:52.315Z,12.00
2018-03-30T05:02:52.327Z,12.00
2018-03-30T05:03:52.339Z,16.00
2018-03-30T05:04:52.349Z,16.00
2018-03-30T05:05:52.360Z,20.00
2018-03-30T05:06:52.375Z,24.00
2018-03-30T05:07:52.391Z,24.00
2018-03-30T05:08:52.401Z,28.00
2018-03-30T05:09:52.413Z,28.00
2018-03-30T05:10:52.416Z,36.00
2018-03-30T05:11:52.438Z,40.00
2018-03-30T05:12:52.443Z,40.00
2018-03-30T05:13:52.454Z,40.00
2018-03-30T05:14:52.469Z,44.00
2018-03-30T05:15:52.474Z,48.00
2018-03-30T05:16:52.487Z,52.00
2018-03-30T05:17:52.499Z,56.00
2018-03-30T05:18:52.510Z,60.00
2018-03-30T05:19:52.520Z,64.00
2018-03-30T05:20:52.534Z,68.00
2018-03-30T05:21:52.548Z,76.00
2018-03-30T05:22:52.555Z,76.00
2018-03-30T05:23:52.570Z,80.00
2018-03-30T05:24:52.579Z,88.00
2018-03-30T05:25:52.592Z,92.00
2018-03-30T05:26:52.604Z,96.00
2018-03-30T05:27:52.614Z,100.00
2018-03-30T05:28:52.644Z,108.00
2018-03-30T05:29:52.638Z,112.00
2018-03-30T05:30:52.648Z,116.00
2018-03-30T05:31:52.661Z,128.00
2018-03-30T05:32:52.676Z,128.00
2018-03-30T05:33:52.685Z,140.00
2018-03-30T05:34:52.701Z,144.00
2018-03-30T05:35:52.706Z,152.00
2018-03-30T05:36:52.719Z,160.00
2018-03-30T05:37:52.732Z,172.00
2018-03-30T05:38:52.747Z,180.00
2018-03-30T05:39:52.754Z,188.00
2018-03-30T05:40:52.767Z,192.00
2018-03-30T05:41:52.777Z,196.00
2018-03-30T05:42:52.788Z,200.00
2018-03-30T05:43:52.800Z,200.00
2018-03-30T05:44:52.813Z,204.00
2018-03-30T05:45:52.823Z,208.00
2018-03-30T05:46:52.834Z,212.00
2018-03-30T05:47:52.850Z,212.00
2018-03-30T05:48:52.858Z,216.00
2018-03-30T05:49:52.874Z,228.00
2018-03-30T05:50:52.882Z,236.00
2018-03-30T05:51:52.894Z,256.00
2018-03-30T05:52:52.907Z,272.00
2018-03-30T05:53:52.933Z,292.00
2018-03-30T05:54:52.924Z,304.00
2018-03-30T05:55:52.937Z,320.00
2018-03-30T05:56:52.954Z,336.00
2018-03-30T05:57:52.962Z,356.00
2018-03-30T05:58:52.974Z,380.00
2018-03-30T05:59:52.985Z,396.00
2018-03-30T06:00:52.999Z,416.00
2018-03-30T06:01:53.008Z,432.00
2018-03-30T06:02:53.026Z,448.00
2018-03-30T06:03:53.032Z,472.00
2018-03-30T06:04:53.046Z,492.00
2018-03-30T06:05:53.058Z,512.00
2018-03-30T06:06:53.068Z,524.00
2018-03-30T06:07:53.085Z,532.00
2018-03-30T06:08:53.095Z,536.00
2018-03-30T06:09:53.108Z,536.00
2018-03-30T06:10:53.115Z,552.00
2018-03-30T06:11:53.128Z,580.00
2018-03-30T06:12:53.171Z,620.00
2018-03-30T06:13:53.153Z,668.00
2018-03-30T06:14:53.163Z,712.00
2018-03-30T06:15:53.175Z,752.00
2018-03-30T06:16:53.189Z,784.00
2018-03-30T06:17:53.200Z,816.00
2018-03-30T06:18:53.284Z,848.00
2018-03-30T06:19:53.222Z,880.00
2018-03-30T06:20:53.239Z,908.00
2018-03-30T06:21:53.254Z,940.00
2018-03-30T06:22:53.257Z,972.00
2018-03-30T06:23:53.270Z,996.00
2018-03-30T06:24:53.283Z,1008.00
2018-03-30T06:25:53.295Z,1024.00
2018-03-30T06:26:53.352Z,1028.00
2018-03-30T06:27:53.319Z,1020.00
2018-03-30T06:28:53.330Z,1012.00
2018-03-30T06:29:53.348Z,996.00
2018-03-30T06:30:53.355Z,988.00
2018-03-30T06:31:53.368Z,984.00
2018-03-30T06:32:53.383Z,988.00
2018-03-30T06:33:53.393Z,1000.00
2018-03-30T06:34:53.404Z,1012.00
2018-03-30T06:35:53.415Z,1044.00
2018-03-30T06:36:53.434Z,1088.00
2018-03-30T06:37:53.441Z,1096.00
2018-03-30T06:38:53.454Z,1124.00
2018-03-30T06:39:53.470Z,1144.00
2018-03-30T06:40:53.479Z,1156.00
2018-03-30T06:41:53.491Z,1164.00
2018-03-30T06:42:53.506Z,1172.00
2018-03-30T06:43:53.515Z,1168.00
2018-03-30T06:44:53.530Z,1156.00
2018-03-30T06:45:53.539Z,1140.00
2018-03-30T06:46:53.552Z,1124.00
2018-03-30T06:47:53.565Z,1120.00
2018-03-30T06:48:53.578Z,1116.00
2018-03-30T06:49:53.598Z,1112.00
2018-03-30T06:50:53.606Z,1108.00
2018-03-30T06:51:53.623Z,1104.00
2018-03-30T06:52:53.636Z,1096.00
2018-03-30T06:53:53.637Z,1080.00
2018-03-30T06:54:53.653Z,1064.00
2018-03-30T06:55:53.664Z,1048.00
2018-03-30T06:56:53.678Z,1044.00
2018-03-30T06:57:53.691Z,1036.00
2018-03-30T06:58:53.699Z,1032.00
2018-03-30T06:59:53.713Z,1036.00
2018-03-30T07:00:53.726Z,1048.00
2018-03-30T07:01:53.740Z,1060.00
2018-03-30T07:02:53.752Z,1068.00
2018-03-30T07:03:53.764Z,1084.00
2018-03-30T07:04:53.781Z,1116.00
2018-03-30T07:05:53.791Z,1164.00
2018-03-30T07:06:53.803Z,1212.00
2018-03-30T07:07:53.816Z,1256.00
2018-03-30T07:08:53.827Z,1304.00
2018-03-30T07:09:53.839Z,1344.00
2018-03-30T07:10:53.860Z,1392.00
2018-03-30T07:11:53.862Z,1424.00
2018-03-30T07:12:53.878Z,1444.00
2018-03-30T07:13:53.888Z,1456.00
2018-03-30T07:14:53.899Z,1464.00
2018-03-30T07:15:53.913Z,1468.00
2018-03-30T07:16:53.947Z,1484.00
2018-03-30T07:17:53.940Z,1512.00
2018-03-30T07:18:53.962Z,1552.00
2018-03-30T07:19:53.964Z,1572.00
2018-03-30T07:20:53.975Z,1588.00
2018-03-30T07:21:53.991Z,1624.00
2018-03-30T07:22:54.003Z,1648.00
2018-03-30T07:23:54.013Z,1688.00
2018-03-30T07:24:54.023Z,1748.00
2018-03-30T07:25:54.044Z,1796.00
2018-03-30T07:26:54.052Z,1840.00
2018-03-30T07:27:54.062Z,1912.00
2018-03-30T07:28:54.075Z,1976.00
2018-03-30T07:29:54.089Z,2016.00
2018-03-30T07:30:54.100Z,2108.00
2018-03-30T07:31:54.115Z,2176.00
2018-03-30T07:32:54.141Z,2244.00
2018-03-30T07:33:54.144Z,2312.00
2018-03-30T07:34:54.153Z,2424.00
2018-03-30T07:35:54.161Z,2416.00
2018-03-30T07:36:54.176Z,2576.00
2018-03-30T07:37:54.189Z,2784.00
2018-03-30T07:38:54.202Z,3180.00
2018-03-30T07:39:54.216Z,2792.00
2018-03-30T07:40:54.228Z,2632.00
2018-03-30T07:41:54.240Z,3332.00
2018-03-30T07:42:54.252Z,3844.00
2018-03-30T07:43:54.269Z,3932.00
2018-03-30T07:44:54.280Z,3788.00
2018-03-30T07:45:54.292Z,2752.00
2018-03-30T07:46:54.303Z,3236.00
2018-03-30T07:47:54.319Z,3232.00
2018-03-30T07:48:54.332Z,3624.00
2018-03-30T07:49:54.345Z,2820.00
2018-03-30T07:50:54.361Z,3204.00
2018-03-30T07:51:54.370Z,3272.00
2018-03-30T07:52:54.386Z,2928.00
2018-03-30T07:53:54.396Z,2880.00
2018-03-30T07:54:54.410Z,3132.00
2018-03-30T07:55:54.422Z,3148.00
2018-03-30T07:56:54.436Z,2824.00
2018-03-30T07:57:54.462Z,3316.00
2018-03-30T07:58:54.468Z,3248.00
2018-03-30T07:59:54.478Z,3720.00
2018-03-30T08:00:54.497Z,3544.00
2018-03-30T08:01:54.506Z,4132.00
2018-03-30T08:02:54.514Z,4180.00
2018-03-30T08:03:54.533Z,4392.00
2018-03-30T08:04:54.546Z,4720.00
2018-03-30T08:05:54.556Z,4636.00
2018-03-30T08:06:54.572Z,4760.00
2018-03-30T08:07:54.584Z,3848.00
2018-03-30T08:08:54.595Z,3852.00
2018-03-30T08:09:54.611Z,3164.00
2018-03-30T08:10:54.631Z,3040.00
2018-03-30T08:11:54.636Z,2968.00
2018-03-30T08:12:54.653Z,2892.00
2018-03-30T08:13:54.669Z,2832.00
2018-03-30T08:14:54.680Z,2720.00
2018-03-30T08:15:54.717Z,2652.00
2018-03-30T08:16:54.711Z,2676.00
2018-03-30T08:17:54.720Z,2604.00
2018-03-30T08:18:54.736Z,2552.00
2018-03-30T08:19:54.748Z,2500.00
2018-03-30T08:20:54.764Z,2480.00
2018-03-30T08:21:54.777Z,2484.00
2018-03-30T08:22:54.790Z,2512.00
2018-03-30T08:23:54.812Z,2560.00
2018-03-30T08:24:54.818Z,2960.00
2018-03-30T08:25:54.832Z,2576.00
2018-03-30T08:26:54.868Z,2608.00
2018-03-30T08:27:54.863Z,2548.00
2018-03-30T08:28:54.873Z,2592.00
2018-03-30T08:29:54.885Z,2656.00
2018-03-30T08:30:54.899Z,2708.00
2018-03-30T08:31:54.932Z,2748.00
2018-03-30T08:32:54.928Z,2756.00
2018-03-30T08:33:54.939Z,2752.00
2018-03-30T08:34:54.956Z,2756.00
2018-03-30T08:35:54.969Z,2764.00
2018-03-30T08:36:54.983Z,2756.00
2018-03-30T08:37:54.995Z,2732.00
2018-03-30T08:38:55.010Z,2692.00
2018-03-30T08:39:55.024Z,2644.00
2018-03-30T08:40:55.037Z,2608.00
2018-03-30T08:41:55.133Z,2620.00
2018-03-30T08:42:55.068Z,2672.00
2018-03-30T08:43:55.081Z,2728.00
2018-03-30T08:44:55.094Z,2824.00
2018-03-30T08:45:55.107Z,2892.00
2018-03-30T08:46:55.124Z,2948.00
2018-03-30T08:47:55.136Z,3044.00
2018-03-30T08:48:55.212Z,2952.00
2018-03-30T08:49:55.171Z,2916.00
2018-03-30T08:50:55.178Z,2960.00
2018-03-30T08:51:55.190Z,3116.00
2018-03-30T08:52:55.204Z,3024.00
2018-03-30T08:53:55.218Z,3056.00
2018-03-30T08:54:55.290Z,3132.00
2018-03-30T08:55:55.249Z,3172.00
2018-03-30T08:56:55.261Z,3200.00
2018-03-30T08:57:55.276Z,3680.00
2018-03-30T08:58:55.290Z,3260.00
2018-03-30T08:59:55.304Z,3232.00
2018-03-30T09:00:55.320Z,3212.00
2018-03-30T09:01:55.337Z,3180.00
2018-03-30T09:02:55.349Z,3156.00
2018-03-30T09:03:55.365Z,3156.00
2018-03-30T09:04:55.376Z,3252.00
2018-03-30T09:05:55.421Z,3340.00
2018-03-30T09:06:55.404Z,3440.00
2018-03-30T09:07:55.434Z,3288.00
2018-03-30T09:08:55.436Z,3272.00
2018-03-30T09:09:55.445Z,3220.00
2018-03-30T09:10:55.459Z,3204.00
2018-03-30T09:11:55.489Z,3192.00
2018-03-30T09:12:55.489Z,3208.00
2018-03-30T09:13:55.509Z,3204.00
2018-03-30T09:14:55.523Z,3376.00
2018-03-30T09:15:55.537Z,3280.00
2018-03-30T09:16:55.546Z,3284.00
2018-03-30T09:17:55.563Z,3444.00
2018-03-30T09:18:55.576Z,3540.00
2018-03-30T09:19:55.585Z,3736.00
2018-03-30T09:20:55.601Z,4416.00
2018-03-30T09:21:55.618Z,5056.00
2018-03-30T09:22:55.631Z,4736.00
2018-03-30T09:23:55.647Z,5060.00
2018-03-30T09:24:55.661Z,6256.00
2018-03-30T09:25:55.675Z,5680.00
2018-03-30T09:26:55.688Z,5816.00
2018-03-30T09:27:55.695Z,5540.00
2018-03-30T09:28:55.708Z,5376.00
2018-03-30T09:29:55.725Z,5696.00
2018-03-30T09:30:55.739Z,5680.00
2018-03-30T09:31:55.755Z,5336.00
2018-03-30T09:32:55.781Z,3676.00
2018-03-30T09:33:55.803Z,3544.00
2018-03-30T09:34:55.799Z,3312.00
2018-03-30T09:35:55.823Z,3368.00
2018-03-30T09:36:55.835Z,3484.00
2018-03-30T09:37:55.843Z,3488.00
2018-03-30T09:38:55.863Z,4124.00
2018-03-30T09:39:55.877Z,5124.00
2018-03-30T09:40:55.890Z,3628.00
2018-03-30T09:41:55.906Z,3524.00
2018-03-30T09:43:55.932Z,3368.00
2018-03-30T09:44:55.951Z,3316.00
2018-03-30T09:45:55.985Z,3268.00
2018-03-30T09:46:55.981Z,3212.00
2018-03-30T09:47:55.993Z,3076.00
2018-03-30T09:48:56.006Z,2916.00
2018-03-30T09:49:56.029Z,2828.00
2018-03-30T09:50:56.039Z,3032.00
2018-03-30T09:51:56.060Z,3032.00
2018-03-30T09:52:56.090Z,4584.00
2018-03-30T09:53:56.084Z,4608.00
2018-03-30T09:54:56.096Z,4232.00
2018-03-30T09:55:56.112Z,4416.00
2018-03-30T09:56:56.126Z,4632.00
2018-03-30T09:57:56.146Z,3668.00
2018-03-30T09:58:56.157Z,4192.00
2018-03-30T09:59:56.171Z,4020.00
2018-03-30T10:00:56.188Z,3924.00
2018-03-30T10:01:56.202Z,4016.00
2018-03-30T10:02:56.218Z,4024.00
2018-03-30T10:03:56.231Z,3972.00
2018-03-30T10:04:56.245Z,3932.00
2018-03-30T10:05:56.262Z,3912.00
2018-03-30T10:06:56.281Z,3772.00
2018-03-30T10:07:56.290Z,3784.00
2018-03-30T10:08:56.315Z,3800.00
2018-03-30T10:09:56.341Z,3692.00
2018-03-30T10:10:56.334Z,3956.00
2018-03-30T10:11:56.351Z,3972.00
2018-03-30T10:12:56.364Z,4000.00
2018-03-30T10:13:56.381Z,3976.00
2018-03-30T10:14:56.393Z,4016.00
2018-03-30T10:15:56.415Z,3976.00
2018-03-30T10:16:56.448Z,3924.00
2018-03-30T10:17:57.249Z,3948.00
2018-03-30T10:18:56.479Z,4080.00
2018-03-30T10:19:56.787Z,4100.00
2018-03-30T10:20:56.490Z,4140.00
2018-03-30T10:21:56.504Z,4192.00
2018-03-30T10:22:56.515Z,4136.00
2018-03-30T10:23:56.540Z,4036.00
2018-03-30T10:24:56.541Z,3932.00
2018-03-30T10:25:56.558Z,4300.00
2018-03-30T10:26:56.588Z,4420.00
2018-03-30T10:27:56.591Z,4448.00
2018-03-30T10:28:56.609Z,4180.00
2018-03-30T10:29:56.623Z,4120.00
2018-03-30T10:30:56.631Z,4556.00
2018-03-30T10:31:56.649Z,4512.00
2018-03-30T10:32:56.667Z,4508.00
2018-03-30T10:33:56.676Z,4476.00
2018-03-30T10:34:57.430Z,4328.00
2018-03-30T10:35:56.715Z,4308.00
2018-03-30T10:37:57.215Z,3624.00
2018-03-30T10:38:56.758Z,3508.00
2018-03-30T10:39:56.778Z,4344.00
2018-03-30T10:40:56.783Z,4456.00
2018-03-30T10:41:56.798Z,4484.00
2018-03-30T10:42:56.811Z,4564.00
2018-03-30T10:43:56.825Z,3956.00
2018-03-30T10:44:56.839Z,4580.00
2018-03-30T10:45:56.870Z,4504.00
2018-03-30T10:46:56.871Z,4524.00
2018-03-30T10:47:56.885Z,4596.00
2018-03-30T10:48:56.900Z,4400.00
2018-03-30T10:49:56.918Z,4572.00
2018-03-30T10:50:56.927Z,4580.00
2018-03-30T10:51:56.949Z,4628.00
2018-03-30T10:52:56.963Z,2740.00
2018-03-30T10:53:56.976Z,3468.00
2018-03-30T10:54:56.992Z,2732.00
2018-03-30T10:55:57.010Z,2720.00
2018-03-30T10:56:57.020Z,3000.00
2018-03-30T10:57:57.036Z,4344.00
2018-03-30T10:58:57.051Z,4856.00
2018-03-30T10:59:57.065Z,4936.00
2018-03-30T11:00:57.088Z,4732.00
2018-03-30T11:01:57.097Z,4120.00
2018-03-30T11:02:57.120Z,3964.00
2018-03-30T11:03:57.127Z,4060.00
2018-03-30T11:04:57.142Z,3912.00
2018-03-30T11:05:57.159Z,3936.00
2018-03-30T11:06:57.176Z,3840.00
2018-03-30T11:07:57.186Z,3812.00
2018-03-30T11:08:57.255Z,3900.00
2018-03-30T11:09:57.223Z,3788.00
2018-03-30T11:10:57.232Z,3788.00
2018-03-30T11:11:57.248Z,3660.00
2018-03-30T11:12:57.268Z,3620.00
2018-03-30T11:13:57.280Z,3612.00
2018-03-30T11:14:57.297Z,3608.00
2018-03-30T11:15:57.310Z,3556.00
2018-03-30T11:16:57.328Z,2736.00
2018-03-30T11:17:57.389Z,2972.00
2018-03-30T11:18:57.368Z,3624.00
2018-03-30T11:19:57.370Z,3412.00
2018-03-30T11:20:57.387Z,3160.00
2018-03-30T11:21:57.424Z,3920.00
2018-03-30T11:22:57.421Z,3900.00
2018-03-30T11:23:57.433Z,3708.00
2018-03-30T11:24:57.591Z,4008.00
2018-03-30T11:25:57.464Z,4244.00
2018-03-30T11:26:57.476Z,3992.00
2018-03-30T11:27:57.493Z,3956.00
2018-03-30T11:28:57.517Z,3184.00
2018-03-30T11:29:57.524Z,3812.00
2018-03-30T11:30:57.543Z,3788.00
2018-03-30T11:31:57.559Z,3924.00
2018-03-30T11:32:57.567Z,3756.00
2018-03-30T11:33:57.889Z,3812.00
2018-03-30T11:34:57.601Z,3948.00
2018-03-30T11:35:57.616Z,4116.00
2018-03-30T11:36:57.633Z,4068.00
2018-03-30T11:37:57.649Z,3948.00
2018-03-30T11:38:57.662Z,3808.00
2018-03-30T11:39:57.675Z,3712.00
2018-03-30T11:40:57.691Z,2664.00
2018-03-30T11:41:57.706Z,4016.00
2018-03-30T11:42:57.721Z,3712.00
2018-03-30T11:43:57.739Z,2860.00
2018-03-30T11:44:57.756Z,3764.00
2018-03-30T11:45:57.773Z,4048.00
2018-03-30T11:46:57.785Z,4220.00
2018-03-30T11:47:57.814Z,4296.00
2018-03-30T11:48:57.820Z,4252.00
2018-03-30T11:49:57.830Z,4172.00
2018-03-30T11:50:57.844Z,4028.00
2018-03-30T11:51:57.861Z,4012.00
2018-03-30T11:52:57.881Z,3892.00
2018-03-30T11:53:57.892Z,4236.00
2018-03-30T11:54:57.906Z,4184.00
2018-03-30T11:55:57.939Z,4232.00
2018-03-30T11:56:57.940Z,4204.00
2018-03-30T11:57:57.966Z,4132.00
2018-03-30T11:58:57.976Z,4072.00
2018-03-30T11:59:57.983Z,4072.00
2018-03-30T12:00:58.010Z,4124.00
2018-03-30T12:01:58.033Z,4120.00
2018-03-30T12:02:58.036Z,4116.00
2018-03-30T12:03:58.049Z,4132.00
2018-03-30T12:04:58.080Z,4136.00
2018-03-30T12:05:58.079Z,4116.00
2018-03-30T12:06:58.098Z,4164.00
2018-03-30T12:07:58.106Z,4164.00
2018-03-30T12:08:58.127Z,4208.00
2018-03-30T12:09:58.147Z,4180.00
2018-03-30T12:10:58.155Z,4192.00
2018-03-30T12:11:58.168Z,4164.00
2018-03-30T12:12:58.207Z,4236.00
2018-03-30T12:13:58.212Z,4308.00
2018-03-30T12:14:58.214Z,4300.00
2018-03-30T12:15:58.239Z,4412.00
2018-03-30T12:16:58.247Z,4456.00
2018-03-30T12:17:58.263Z,4544.00
2018-03-30T12:18:58.301Z,4564.00
2018-03-30T12:19:58.301Z,4644.00
2018-03-30T12:20:58.312Z,4596.00
2018-03-30T12:21:58.327Z,4644.00
2018-03-30T12:22:58.342Z,4660.00
2018-03-30T12:23:58.362Z,4804.00
2018-03-30T12:24:58.377Z,4904.00
2018-03-30T12:25:58.391Z,4948.00
2018-03-30T12:26:58.405Z,5000.00
2018-03-30T12:27:58.423Z,5084.00
2018-03-30T12:28:58.433Z,5156.00
2018-03-30T12:29:58.452Z,5300.00
2018-03-30T12:30:58.467Z,5368.00
2018-03-30T12:31:58.485Z,5416.00
2018-03-30T12:32:58.499Z,5364.00
2018-03-30T12:33:58.530Z,5300.00
2018-03-30T12:34:58.527Z,5388.00
2018-03-30T12:35:58.545Z,5572.00
2018-03-30T12:36:58.565Z,5336.00
2018-03-30T12:37:58.648Z,5248.00
2018-03-30T12:38:58.589Z,5176.00
2018-03-30T12:39:58.624Z,4888.00